Shippingport, Pennsylvania
Current Conditions -  °F | °C
As of 9:51 PM on Thursday 27 Nov 2014 (Local Time) from KPIT Reporting Station
Overcast Overcast  
Wind Chill: 20°   Ceiling: 1700
Heat Index: 29°   Visibility: 10mi
Dew Point: 25°   Wind: 9mph
Humidity: 85%   Direction: 270°W
Pressure: 30.2"   Gusts: NA
Location:  40.63°N, 80.41°W
Report Text: KPIT 280251Z 27008KT 10SM BKN017 OVC025 M02/M04 A3020 RMK AO2 SLP246 60000 T10171039 51007
Loading
Personal Weather Stations






























Interactive Weather Map New forecast layout! Learn more

10-Day Weather Forecast

Advertisements
Track Severe Weather on mobile